sensor_id;sensor_type;location;lat;lon;timestamp;P1;durP1;ratioP1;P2;durP2;ratioP2
11443;SDS011;5778;47.856;12.154;2022-11-20T00:00:18;1.60;;;1.50;;
11443;SDS011;5778;47.856;12.154;2022-11-20T00:02:46;2.70;;;1.70;;
11443;SDS011;5778;47.856;12.154;2022-11-20T00:05:13;2.83;;;1.80;;
11443;SDS011;5778;47.856;12.154;2022-11-20T00:07:40;2.90;;;1.50;;
11443;SDS011;5778;47.856;12.154;2022-11-20T00:10:07;1.70;;;1.23;;
11443;SDS011;5778;47.856;12.154;2022-11-20T00:12:36;2.20;;;1.30;;
11443;SDS011;5778;47.856;12.154;2022-11-20T00:15:03;1.40;;;1.30;;
11443;SDS011;5778;47.856;12.154;2022-11-20T00:17:31;1.43;;;1.17;;
11443;SDS011;5778;47.856;12.154;2022-11-20T00:19:58;1.67;;;1.20;;
11443;SDS011;5778;47.856;12.154;2022-11-20T00:22:25;1.37;;;1.27;;
11443;SDS011;5778;47.856;12.154;2022-11-20T00:24:52;1.37;;;1.27;;
11443;SDS011;5778;47.856;12.154;2022-11-20T00:27:19;1.30;;;1.20;;
11443;SDS011;5778;47.856;12.154;2022-11-20T00:29:47;2.43;;;1.10;;
11443;SDS011;5778;47.856;12.154;2022-11-20T00:32:14;1.17;;;1.07;;
11443;SDS011;5778;47.856;12.154;2022-11-20T00:34:41;1.40;;;1.30;;
11443;SDS011;5778;47.856;12.154;2022-11-20T00:37:08;1.30;;;1.20;;
11443;SDS011;5778;47.856;12.154;2022-11-20T00:39:35;1.60;;;1.50;;
11443;SDS011;5778;47.856;12.154;2022-11-20T00:42:02;1.63;;;1.00;;
11443;SDS011;5778;47.856;12.154;2022-11-20T00:44:29;1.20;;;1.10;;
11443;SDS011;5778;47.856;12.154;2022-11-20T00:46:58;1.10;;;1.00;;
11443;SDS011;5778;47.856;12.154;2022-11-20T00:49:25;0.80;;;0.80;;
11443;SDS011;5778;47.856;12.154;2022-11-20T00:51:52;1.03;;;1.03;;
11443;SDS011;5778;47.856;12.154;2022-11-20T00:54:19;1.73;;;1.03;;
11443;SDS011;5778;47.856;12.154;2022-11-20T00:56:46;1.20;;;1.10;;
11443;SDS011;5778;47.856;12.154;2022-11-20T00:59:13;1.20;;;1.10;;
11443;SDS011;5778;47.856;12.154;2022-11-20T01:01:41;3.03;;;1.50;;
11443;SDS011;5778;47.856;12.154;2022-11-20T01:04:09;1.77;;;1.20;;
11443;SDS011;5778;47.856;12.154;2022-11-20T01:06:38;1.27;;;1.17;;
11443;SDS011;5778;47.856;12.154;2022-11-20T01:09:07;1.07;;;1.00;;
11443;SDS011;5778;47.856;12.154;2022-11-20T01:11:39;1.30;;;1.20;;
11443;SDS011;5778;47.856;12.154;2022-11-20T01:14:07;1.40;;;1.20;;
11443;SDS011;5778;47.856;12.154;2022-11-20T01:16:37;1.30;;;1.20;;
11443;SDS011;5778;47.856;12.154;2022-11-20T01:19:07;1.30;;;1.20;;
11443;SDS011;5778;47.856;12.154;2022-11-20T01:21:39;1.00;;;1.00;;
11443;SDS011;5778;47.856;12.154;2022-11-20T01:24:08;1.30;;;1.20;;
11443;SDS011;5778;47.856;12.154;2022-11-20T01:26:39;1.13;;;1.13;;
11443;SDS011;5778;47.856;12.154;2022-11-20T01:29:08;1.77;;;1.10;;
11443;SDS011;5778;47.856;12.154;2022-11-20T01:31:40;2.10;;;1.57;;
11443;SDS011;5778;47.856;12.154;2022-11-20T01:34:09;1.63;;;1.53;;
11443;SDS011;5778;47.856;12.154;2022-11-20T01:36:40;1.03;;;1.03;;
11443;SDS011;5778;47.856;12.154;2022-11-20T01:39:09;1.00;;;1.00;;
11443;SDS011;5778;47.856;12.154;2022-11-20T01:41:39;1.67;;;1.50;;
11443;SDS011;5778;47.856;12.154;2022-11-20T01:47:12;1.20;;;1.10;;
11443;SDS011;5778;47.856;12.154;2022-11-20T01:49:45;1.33;;;1.27;;
11443;SDS011;5778;47.856;12.154;2022-11-20T01:52:15;1.40;;;1.30;;
11443;SDS011;5778;47.856;12.154;2022-11-20T01:54:45;1.33;;;1.20;;
11443;SDS011;5778;47.856;12.154;2022-11-20T01:57:16;1.10;;;1.10;;
11443;SDS011;5778;47.856;12.154;2022-11-20T01:59:48;1.47;;;1.40;;
11443;SDS011;5778;47.856;12.154;2022-11-20T02:02:20;1.30;;;1.20;;
11443;SDS011;5778;47.856;12.154;2022-11-20T02:04:49;2.87;;;1.30;;
11443;SDS011;5778;47.856;12.154;2022-11-20T02:07:20;1.57;;;1.47;;
11443;SDS011;5778;47.856;12.154;2022-11-20T02:09:48;1.33;;;1.30;;
11443;SDS011;5778;47.856;12.154;2022-11-20T02:12:16;1.63;;;1.40;;
11443;SDS011;5778;47.856;12.154;2022-11-20T02:14:57;1.87;;;1.20;;
11443;SDS011;5778;47.856;12.154;2022-11-20T02:17:24;1.90;;;1.37;;
11443;SDS011;5778;47.856;12.154;2022-11-20T02:19:53;1.30;;;1.20;;
11443;SDS011;5778;47.856;12.154;2022-11-20T02:22:23;1.50;;;1.40;;
11443;SDS011;5778;47.856;12.154;2022-11-20T02:24:56;1.40;;;1.30;;
11443;SDS011;5778;47.856;12.154;2022-11-20T02:27:27;2.10;;;1.20;;
11443;SDS011;5778;47.856;12.154;2022-11-20T02:29:56;1.50;;;1.40;;
11443;SDS011;5778;47.856;12.154;2022-11-20T02:32:27;1.40;;;1.30;;
11443;SDS011;5778;47.856;12.154;2022-11-20T02:34:56;1.63;;;1.53;;
11443;SDS011;5778;47.856;12.154;2022-11-20T02:37:24;1.33;;;1.30;;
11443;SDS011;5778;47.856;12.154;2022-11-20T02:39:58;1.60;;;1.50;;
11443;SDS011;5778;47.856;12.154;2022-11-20T02:42:27;1.63;;;1.43;;
11443;SDS011;5778;47.856;12.154;2022-11-20T02:44:53;1.70;;;1.60;;
11443;SDS011;5778;47.856;12.154;2022-11-20T02:47:20;1.27;;;1.20;;
11443;SDS011;5778;47.856;12.154;2022-11-20T02:49:47;1.77;;;1.30;;
11443;SDS011;5778;47.856;12.154;2022-11-20T02:52:14;1.17;;;1.13;;
11443;SDS011;5778;47.856;12.154;2022-11-20T02:54:41;1.13;;;1.13;;
11443;SDS011;5778;47.856;12.154;2022-11-20T02:57:10;1.47;;;1.37;;
11443;SDS011;5778;47.856;12.154;2022-11-20T02:59:37;2.87;;;1.40;;
11443;SDS011;5778;47.856;12.154;2022-11-20T03:02:04;1.40;;;1.30;;
11443;SDS011;5778;47.856;12.154;2022-11-20T03:04:31;1.47;;;1.37;;
11443;SDS011;5778;47.856;12.154;2022-11-20T03:06:58;1.33;;;1.23;;
11443;SDS011;5778;47.856;12.154;2022-11-20T03:09:25;1.33;;;1.23;;
11443;SDS011;5778;47.856;12.154;2022-11-20T03:11:53;1.70;;;1.60;;
11443;SDS011;5778;47.856;12.154;2022-11-20T03:14:22;1.53;;;1.43;;
11443;SDS011;5778;47.856;12.154;2022-11-20T03:16:49;1.60;;;1.50;;
11443;SDS011;5778;47.856;12.154;2022-11-20T03:19:16;1.80;;;1.50;;
11443;SDS011;5778;47.856;12.154;2022-11-20T03:21:44;1.37;;;1.30;;
11443;SDS011;5778;47.856;12.154;2022-11-20T03:24:11;1.47;;;1.37;;
11443;SDS011;5778;47.856;12.154;2022-11-20T03:26:40;3.37;;;1.53;;
11443;SDS011;5778;47.856;12.154;2022-11-20T03:29:07;1.90;;;1.70;;
11443;SDS011;5778;47.856;12.154;2022-11-20T03:31:40;1.40;;;1.30;;
11443;SDS011;5778;47.856;12.154;2022-11-20T03:34:07;1.83;;;1.57;;
11443;SDS011;5778;47.856;12.154;2022-11-20T03:36:37;1.80;;;1.70;;
11443;SDS011;5778;47.856;12.154;2022-11-20T03:39:05;2.13;;;1.70;;
11443;SDS011;5778;47.856;12.154;2022-11-20T03:41:35;1.80;;;1.70;;
11443;SDS011;5778;47.856;12.154;2022-11-20T03:44:04;1.80;;;1.70;;
11443;SDS011;5778;47.856;12.154;2022-11-20T03:46:33;1.70;;;1.60;;
11443;SDS011;5778;47.856;12.154;2022-11-20T03:49:02;2.03;;;1.87;;
11443;SDS011;5778;47.856;12.154;2022-11-20T03:51:30;1.80;;;1.70;;
11443;SDS011;5778;47.856;12.154;2022-11-20T03:53:59;2.07;;;1.87;;
11443;SDS011;5778;47.856;12.154;2022-11-20T03:56:28;2.13;;;2.00;;
11443;SDS011;5778;47.856;12.154;2022-11-20T03:58:55;3.63;;;2.50;;
11443;SDS011;5778;47.856;12.154;2022-11-20T04:01:24;2.07;;;1.87;;
11443;SDS011;5778;47.856;12.154;2022-11-20T04:03:53;1.93;;;1.80;;
11443;SDS011;5778;47.856;12.154;2022-11-20T04:06:24;1.87;;;1.73;;
11443;SDS011;5778;47.856;12.154;2022-11-20T04:08:54;1.90;;;1.80;;
11443;SDS011;5778;47.856;12.154;2022-11-20T04:11:22;2.37;;;1.90;;
11443;SDS011;5778;47.856;12.154;2022-11-20T04:13:50;1.90;;;1.80;;
11443;SDS011;5778;47.856;12.154;2022-11-20T04:16:19;2.97;;;2.03;;
11443;SDS011;5778;47.856;12.154;2022-11-20T04:18:50;3.60;;;1.83;;
11443;SDS011;5778;47.856;12.154;2022-11-20T04:21:18;2.60;;;2.00;;
11443;SDS011;5778;47.856;12.154;2022-11-20T04:23:46;2.30;;;2.10;;
11443;SDS011;5778;47.856;12.154;2022-11-20T04:26:13;2.77;;;2.57;;
11443;SDS011;5778;47.856;12.154;2022-11-20T04:28:40;2.00;;;1.90;;
11443;SDS011;5778;47.856;12.154;2022-11-20T04:31:08;3.27;;;2.00;;
11443;SDS011;5778;47.856;12.154;2022-11-20T04:33:37;2.60;;;2.20;;
11443;SDS011;5778;47.856;12.154;2022-11-20T04:36:05;2.40;;;2.20;;
11443;SDS011;5778;47.856;12.154;2022-11-20T04:38:34;2.43;;;2.20;;
11443;SDS011;5778;47.856;12.154;2022-11-20T04:41:03;3.07;;;2.30;;
11443;SDS011;5778;47.856;12.154;2022-11-20T04:43:32;2.93;;;2.30;;
11443;SDS011;5778;47.856;12.154;2022-11-20T04:46:00;2.67;;;2.13;;
11443;SDS011;5778;47.856;12.154;2022-11-20T04:48:28;2.63;;;2.43;;
11443;SDS011;5778;47.856;12.154;2022-11-20T04:50:55;3.37;;;2.40;;
11443;SDS011;5778;47.856;12.154;2022-11-20T04:53:24;2.33;;;2.13;;
11443;SDS011;5778;47.856;12.154;2022-11-20T04:55:52;3.00;;;2.70;;
11443;SDS011;5778;47.856;12.154;2022-11-20T04:58:27;2.93;;;2.63;;
11443;SDS011;5778;47.856;12.154;2022-11-20T05:01:00;2.40;;;2.20;;
11443;SDS011;5778;47.856;12.154;2022-11-20T05:03:28;2.40;;;2.20;;
11443;SDS011;5778;47.856;12.154;2022-11-20T05:05:59;3.13;;;2.20;;
11443;SDS011;5778;47.856;12.154;2022-11-20T05:08:27;2.60;;;2.30;;
11443;SDS011;5778;47.856;12.154;2022-11-20T05:10:58;3.00;;;2.10;;
11443;SDS011;5778;47.856;12.154;2022-11-20T05:13:28;2.87;;;2.60;;
11443;SDS011;5778;47.856;12.154;2022-11-20T05:16:00;2.73;;;2.53;;
11443;SDS011;5778;47.856;12.154;2022-11-20T05:18:28;2.43;;;2.23;;
11443;SDS011;5778;47.856;12.154;2022-11-20T05:20:55;2.93;;;2.60;;
11443;SDS011;5778;47.856;12.154;2022-11-20T05:23:23;2.57;;;2.37;;
11443;SDS011;5778;47.856;12.154;2022-11-20T05:25:51;3.20;;;2.40;;
11443;SDS011;5778;47.856;12.154;2022-11-20T05:28:19;2.43;;;2.23;;
11443;SDS011;5778;47.856;12.154;2022-11-20T05:30:48;3.43;;;2.40;;
11443;SDS011;5778;47.856;12.154;2022-11-20T05:33:15;2.73;;;2.53;;
11443;SDS011;5778;47.856;12.154;2022-11-20T05:35:43;3.33;;;2.53;;
11443;SDS011;5778;47.856;12.154;2022-11-20T05:38:10;2.73;;;2.20;;
11443;SDS011;5778;47.856;12.154;2022-11-20T05:40:37;3.23;;;2.77;;
11443;SDS011;5778;47.856;12.154;2022-11-20T05:43:04;4.10;;;2.80;;
11443;SDS011;5778;47.856;12.154;2022-11-20T05:45:31;2.47;;;2.30;;
11443;SDS011;5778;47.856;12.154;2022-11-20T05:47:59;2.50;;;2.30;;
11443;SDS011;5778;47.856;12.154;2022-11-20T05:50:27;3.30;;;2.50;;
11443;SDS011;5778;47.856;12.154;2022-11-20T05:52:54;2.80;;;2.60;;
11443;SDS011;5778;47.856;12.154;2022-11-20T05:55:24;3.40;;;2.53;;
11443;SDS011;5778;47.856;12.154;2022-11-20T05:57:51;3.10;;;2.77;;
11443;SDS011;5778;47.856;12.154;2022-11-20T06:00:18;3.97;;;2.53;;
11443;SDS011;5778;47.856;12.154;2022-11-20T06:02:46;3.17;;;2.53;;
11443;SDS011;5778;47.856;12.154;2022-11-20T06:05:15;2.90;;;2.70;;
11443;SDS011;5778;47.856;12.154;2022-11-20T06:07:42;2.90;;;2.70;;
11443;SDS011;5778;47.856;12.154;2022-11-20T06:10:09;2.63;;;2.43;;
11443;SDS011;5778;47.856;12.154;2022-11-20T06:12:38;2.63;;;2.43;;
11443;SDS011;5778;47.856;12.154;2022-11-20T06:15:05;3.20;;;2.90;;
11443;SDS011;5778;47.856;12.154;2022-11-20T06:17:33;3.40;;;3.10;;
11443;SDS011;5778;47.856;12.154;2022-11-20T06:20:00;3.53;;;3.23;;
11443;SDS011;5778;47.856;12.154;2022-11-20T06:22:30;3.10;;;2.80;;
11443;SDS011;5778;47.856;12.154;2022-11-20T06:24:58;2.87;;;2.50;;
11443;SDS011;5778;47.856;12.154;2022-11-20T06:27:25;5.87;;;4.43;;
11443;SDS011;5778;47.856;12.154;2022-11-20T06:29:53;2.90;;;2.70;;
11443;SDS011;5778;47.856;12.154;2022-11-20T06:32:21;3.17;;;2.77;;
11443;SDS011;5778;47.856;12.154;2022-11-20T06:34:49;6.93;;;5.10;;
11443;SDS011;5778;47.856;12.154;2022-11-20T06:37:16;8.47;;;5.63;;
11443;SDS011;5778;47.856;12.154;2022-11-20T06:39:44;4.50;;;3.20;;
11443;SDS011;5778;47.856;12.154;2022-11-20T06:45:34;2.90;;;2.60;;
11443;SDS011;5778;47.856;12.154;2022-11-20T06:48:01;2.37;;;2.20;;
11443;SDS011;5778;47.856;12.154;2022-11-20T06:50:29;2.67;;;2.40;;
11443;SDS011;5778;47.856;12.154;2022-11-20T06:55:49;3.43;;;3.03;;
11443;SDS011;5778;47.856;12.154;2022-11-20T06:58:17;2.93;;;2.73;;
11443;SDS011;5778;47.856;12.154;2022-11-20T07:00:44;2.97;;;2.67;;
11443;SDS011;5778;47.856;12.154;2022-11-20T07:06:02;2.13;;;1.97;;
11443;SDS011;5778;47.856;12.154;2022-11-20T07:08:30;2.20;;;2.10;;
11443;SDS011;5778;47.856;12.154;2022-11-20T07:11:00;2.13;;;1.93;;
11443;SDS011;5778;47.856;12.154;2022-11-20T07:13:32;3.40;;;2.43;;
11443;SDS011;5778;47.856;12.154;2022-11-20T07:16:00;2.43;;;2.03;;
11443;SDS011;5778;47.856;12.154;2022-11-20T07:18:27;4.23;;;2.30;;
11443;SDS011;5778;47.856;12.154;2022-11-20T07:20:54;3.83;;;2.50;;
11443;SDS011;5778;47.856;12.154;2022-11-20T07:23:23;2.47;;;2.30;;
11443;SDS011;5778;47.856;12.154;2022-11-20T07:25:50;2.83;;;2.60;;
11443;SDS011;5778;47.856;12.154;2022-11-20T07:28:19;2.77;;;2.20;;
11443;SDS011;5778;47.856;12.154;2022-11-20T07:30:49;2.50;;;2.30;;
11443;SDS011;5778;47.856;12.154;2022-11-20T07:33:27;3.00;;;2.70;;
11443;SDS011;5778;47.856;12.154;2022-11-20T07:35:58;2.87;;;2.57;;
11443;SDS011;5778;47.856;12.154;2022-11-20T07:38:27;2.60;;;2.40;;
11443;SDS011;5778;47.856;12.154;2022-11-20T07:40:56;2.87;;;2.67;;
11443;SDS011;5778;47.856;12.154;2022-11-20T07:43:28;2.90;;;2.70;;
11443;SDS011;5778;47.856;12.154;2022-11-20T07:45:56;2.50;;;2.30;;
11443;SDS011;5778;47.856;12.154;2022-11-20T07:48:24;2.40;;;2.20;;
11443;SDS011;5778;47.856;12.154;2022-11-20T07:50:53;2.30;;;2.10;;
11443;SDS011;5778;47.856;12.154;2022-11-20T07:53:20;2.10;;;1.80;;
11443;SDS011;5778;47.856;12.154;2022-11-20T07:55:47;2.20;;;2.00;;
11443;SDS011;5778;47.856;12.154;2022-11-20T07:58:15;2.63;;;2.43;;
11443;SDS011;5778;47.856;12.154;2022-11-20T08:00:43;2.33;;;2.00;;
11443;SDS011;5778;47.856;12.154;2022-11-20T08:03:10;3.53;;;2.60;;
11443;SDS011;5778;47.856;12.154;2022-11-20T08:05:37;2.37;;;2.17;;
11443;SDS011;5778;47.856;12.154;2022-11-20T08:08:04;2.47;;;2.00;;
11443;SDS011;5778;47.856;12.154;2022-11-20T08:10:32;2.20;;;1.90;;
11443;SDS011;5778;47.856;12.154;2022-11-20T08:13:00;2.23;;;2.03;;
11443;SDS011;5778;47.856;12.154;2022-11-20T08:15:48;1.90;;;1.80;;
11443;SDS011;5778;47.856;12.154;2022-11-20T08:18:16;1.80;;;1.60;;
11443;SDS011;5778;47.856;12.154;2022-11-20T08:20:44;1.97;;;1.87;;
11443;SDS011;5778;47.856;12.154;2022-11-20T08:23:11;1.90;;;1.80;;
11443;SDS011;5778;47.856;12.154;2022-11-20T08:25:39;2.07;;;1.90;;
11443;SDS011;5778;47.856;12.154;2022-11-20T08:28:07;1.60;;;1.50;;
11443;SDS011;5778;47.856;12.154;2022-11-20T08:30:36;2.00;;;1.83;;
11443;SDS011;5778;47.856;12.154;2022-11-20T08:33:07;1.83;;;1.73;;
11443;SDS011;5778;47.856;12.154;2022-11-20T08:35:35;2.27;;;1.90;;
11443;SDS011;5778;47.856;12.154;2022-11-20T08:38:03;2.30;;;2.10;;
11443;SDS011;5778;47.856;12.154;2022-11-20T08:40:31;1.63;;;1.53;;
11443;SDS011;5778;47.856;12.154;2022-11-20T08:42:59;1.43;;;1.30;;
11443;SDS011;5778;47.856;12.154;2022-11-20T08:45:26;1.30;;;1.10;;
11443;SDS011;5778;47.856;12.154;2022-11-20T08:47:53;1.20;;;0.90;;
11443;SDS011;5778;47.856;12.154;2022-11-20T08:50:21;1.80;;;0.80;;
11443;SDS011;5778;47.856;12.154;2022-11-20T08:52:49;0.87;;;0.87;;
11443;SDS011;5778;47.856;12.154;2022-11-20T08:55:16;1.70;;;1.40;;
11443;SDS011;5778;47.856;12.154;2022-11-20T08:57:43;0.80;;;0.80;;
11443;SDS011;5778;47.856;12.154;2022-11-20T09:00:11;0.80;;;0.80;;
11443;SDS011;5778;47.856;12.154;2022-11-20T09:02:39;1.40;;;0.90;;
11443;SDS011;5778;47.856;12.154;2022-11-20T09:05:07;1.57;;;1.20;;
11443;SDS011;5778;47.856;12.154;2022-11-20T09:07:36;1.10;;;1.10;;
11443;SDS011;5778;47.856;12.154;2022-11-20T09:10:03;1.10;;;1.00;;
11443;SDS011;5778;47.856;12.154;2022-11-20T09:12:30;1.10;;;1.10;;
11443;SDS011;5778;47.856;12.154;2022-11-20T09:14:58;1.20;;;0.80;;
11443;SDS011;5778;47.856;12.154;2022-11-20T09:17:25;0.90;;;0.90;;
11443;SDS011;5778;47.856;12.154;2022-11-20T09:19:52;1.40;;;1.30;;
11443;SDS011;5778;47.856;12.154;2022-11-20T09:22:20;1.03;;;1.00;;
11443;SDS011;5778;47.856;12.154;2022-11-20T09:24:48;0.90;;;0.90;;
11443;SDS011;5778;47.856;12.154;2022-11-20T09:27:15;1.13;;;0.90;;
11443;SDS011;5778;47.856;12.154;2022-11-20T09:29:45;1.37;;;0.87;;
11443;SDS011;5778;47.856;12.154;2022-11-20T09:32:12;0.80;;;0.60;;
11443;SDS011;5778;47.856;12.154;2022-11-20T09:34:39;0.63;;;0.60;;
11443;SDS011;5778;47.856;12.154;2022-11-20T09:37:06;0.83;;;0.60;;
11443;SDS011;5778;47.856;12.154;2022-11-20T09:39:33;0.60;;;0.60;;
11443;SDS011;5778;47.856;12.154;2022-11-20T09:42:08;0.87;;;0.57;;
11443;SDS011;5778;47.856;12.154;2022-11-20T09:44:53;0.40;;;0.40;;
11443;SDS011;5778;47.856;12.154;2022-11-20T09:47:32;0.60;;;0.50;;
11443;SDS011;5778;47.856;12.154;2022-11-20T09:50:15;0.50;;;0.50;;
11443;SDS011;5778;47.856;12.154;2022-11-20T09:52:55;1.10;;;0.80;;
11443;SDS011;5778;47.856;12.154;2022-11-20T09:55:35;0.70;;;0.70;;
11443;SDS011;5778;47.856;12.154;2022-11-20T09:58:06;0.67;;;0.67;;
11443;SDS011;5778;47.856;12.154;2022-11-20T10:00:39;0.70;;;0.50;;
11443;SDS011;5778;47.856;12.154;2022-11-20T10:03:11;1.20;;;1.10;;
11443;SDS011;5778;47.856;12.154;2022-11-20T10:05:44;0.70;;;0.70;;
11443;SDS011;5778;47.856;12.154;2022-11-20T10:08:14;0.60;;;0.60;;
11443;SDS011;5778;47.856;12.154;2022-11-20T10:10:46;0.60;;;0.60;;
11443;SDS011;5778;47.856;12.154;2022-11-20T10:13:23;0.60;;;0.60;;
11443;SDS011;5778;47.856;12.154;2022-11-20T10:16:09;0.80;;;0.80;;
11443;SDS011;5778;47.856;12.154;2022-11-20T10:18:50;1.00;;;0.90;;
11443;SDS011;5778;47.856;12.154;2022-11-20T10:21:26;0.80;;;0.80;;
11443;SDS011;5778;47.856;12.154;2022-11-20T10:24:22;0.77;;;0.77;;
11443;SDS011;5778;47.856;12.154;2022-11-20T10:27:03;0.67;;;0.67;;
11443;SDS011;5778;47.856;12.154;2022-11-20T10:29:43;0.80;;;0.80;;
11443;SDS011;5778;47.856;12.154;2022-11-20T10:32:16;1.30;;;1.20;;
11443;SDS011;5778;47.856;12.154;2022-11-20T10:34:46;2.77;;;1.13;;
11443;SDS011;5778;47.856;12.154;2022-11-20T10:37:21;0.87;;;0.80;;
11443;SDS011;5778;47.856;12.154;2022-11-20T10:39:51;1.93;;;1.70;;
11443;SDS011;5778;47.856;12.154;2022-11-20T10:42:27;0.90;;;0.90;;
11443;SDS011;5778;47.856;12.154;2022-11-20T10:45:02;0.50;;;0.50;;
11443;SDS011;5778;47.856;12.154;2022-11-20T10:47:47;0.80;;;0.80;;
11443;SDS011;5778;47.856;12.154;2022-11-20T10:50:16;0.70;;;0.70;;
11443;SDS011;5778;47.856;12.154;2022-11-20T10:52:49;0.90;;;0.90;;
11443;SDS011;5778;47.856;12.154;2022-11-20T10:55:25;0.80;;;0.80;;
11443;SDS011;5778;47.856;12.154;2022-11-20T10:58:00;0.93;;;0.93;;
11443;SDS011;5778;47.856;12.154;2022-11-20T11:00:38;1.30;;;1.20;;
11443;SDS011;5778;47.856;12.154;2022-11-20T11:03:08;0.63;;;0.63;;
11443;SDS011;5778;47.856;12.154;2022-11-20T11:05:49;0.83;;;0.83;;
11443;SDS011;5778;47.856;12.154;2022-11-20T11:08:19;1.20;;;1.20;;
11443;SDS011;5778;47.856;12.154;2022-11-20T11:10:47;1.10;;;1.00;;
11443;SDS011;5778;47.856;12.154;2022-11-20T11:13:20;0.70;;;0.70;;
11443;SDS011;5778;47.856;12.154;2022-11-20T11:15:50;0.70;;;0.70;;
11443;SDS011;5778;47.856;12.154;2022-11-20T11:18:24;0.67;;;0.67;;
11443;SDS011;5778;47.856;12.154;2022-11-20T11:20:51;0.60;;;0.60;;
11443;SDS011;5778;47.856;12.154;2022-11-20T11:23:28;0.70;;;0.70;;
11443;SDS011;5778;47.856;12.154;2022-11-20T11:25:59;0.57;;;0.57;;
11443;SDS011;5778;47.856;12.154;2022-11-20T11:28:27;0.50;;;0.50;;
11443;SDS011;5778;47.856;12.154;2022-11-20T11:30:56;0.70;;;0.70;;
11443;SDS011;5778;47.856;12.154;2022-11-20T11:33:24;0.60;;;0.57;;
11443;SDS011;5778;47.856;12.154;2022-11-20T11:35:53;0.80;;;0.80;;
11443;SDS011;5778;47.856;12.154;2022-11-20T11:38:23;0.50;;;0.50;;
11443;SDS011;5778;47.856;12.154;2022-11-20T11:40:56;0.60;;;0.60;;
11443;SDS011;5778;47.856;12.154;2022-11-20T11:43:24;1.40;;;0.80;;
11443;SDS011;5778;47.856;12.154;2022-11-20T11:46:23;0.80;;;0.80;;
11443;SDS011;5778;47.856;12.154;2022-11-20T11:48:54;0.50;;;0.50;;
11443;SDS011;5778;47.856;12.154;2022-11-20T11:51:23;0.50;;;0.50;;
11443;SDS011;5778;47.856;12.154;2022-11-20T11:53:56;0.90;;;0.70;;
11443;SDS011;5778;47.856;12.154;2022-11-20T11:56:27;0.60;;;0.60;;
11443;SDS011;5778;47.856;12.154;2022-11-20T11:58:55;0.80;;;0.70;;
11443;SDS011;5778;47.856;12.154;2022-11-20T12:01:31;0.87;;;0.60;;
11443;SDS011;5778;47.856;12.154;2022-11-20T12:04:04;0.50;;;0.50;;
11443;SDS011;5778;47.856;12.154;2022-11-20T12:06:38;0.60;;;0.60;;
11443;SDS011;5778;47.856;12.154;2022-11-20T12:09:10;0.70;;;0.40;;
11443;SDS011;5778;47.856;12.154;2022-11-20T12:11:40;0.57;;;0.57;;
11443;SDS011;5778;47.856;12.154;2022-11-20T12:14:13;0.40;;;0.40;;
11443;SDS011;5778;47.856;12.154;2022-11-20T12:16:50;0.80;;;0.80;;
11443;SDS011;5778;47.856;12.154;2022-11-20T12:19:19;2.20;;;0.90;;
11443;SDS011;5778;47.856;12.154;2022-11-20T12:21:49;1.00;;;1.00;;
11443;SDS011;5778;47.856;12.154;2022-11-20T12:24:35;0.67;;;0.67;;
11443;SDS011;5778;47.856;12.154;2022-11-20T12:27:15;0.87;;;0.87;;
11443;SDS011;5778;47.856;12.154;2022-11-20T12:30:00;0.90;;;0.90;;
11443;SDS011;5778;47.856;12.154;2022-11-20T12:35:47;0.57;;;0.57;;
11443;SDS011;5778;47.856;12.154;2022-11-20T12:38:35;0.60;;;0.60;;
11443;SDS011;5778;47.856;12.154;2022-11-20T12:41:19;0.77;;;0.77;;
11443;SDS011;5778;47.856;12.154;2022-11-20T12:44:15;0.87;;;0.80;;
11443;SDS011;5778;47.856;12.154;2022-11-20T12:47:19;0.83;;;0.77;;
11443;SDS011;5778;47.856;12.154;2022-11-20T12:49:56;0.93;;;0.90;;
11443;SDS011;5778;47.856;12.154;2022-11-20T12:52:45;1.40;;;1.17;;
11443;SDS011;5778;47.856;12.154;2022-11-20T12:55:16;1.53;;;1.07;;
11443;SDS011;5778;47.856;12.154;2022-11-20T12:58:00;0.50;;;0.50;;
11443;SDS011;5778;47.856;12.154;2022-11-20T13:00:37;1.57;;;0.80;;
11443;SDS011;5778;47.856;12.154;2022-11-20T13:06:13;1.70;;;1.50;;
11443;SDS011;5778;47.856;12.154;2022-11-20T13:08:45;0.87;;;0.87;;
11443;SDS011;5778;47.856;12.154;2022-11-20T13:11:17;1.00;;;1.00;;
11443;SDS011;5778;47.856;12.154;2022-11-20T13:14:01;0.90;;;0.90;;
11443;SDS011;5778;47.856;12.154;2022-11-20T13:16:36;1.70;;;1.60;;
11443;SDS011;5778;47.856;12.154;2022-11-20T13:19:09;2.13;;;1.50;;
11443;SDS011;5778;47.856;12.154;2022-11-20T13:21:45;3.57;;;2.80;;
11443;SDS011;5778;47.856;12.154;2022-11-20T13:24:24;3.10;;;2.80;;
11443;SDS011;5778;47.856;12.154;2022-11-20T13:27:05;1.40;;;1.30;;
11443;SDS011;5778;47.856;12.154;2022-11-20T13:29:47;1.20;;;1.20;;
11443;SDS011;5778;47.856;12.154;2022-11-20T13:32:31;5.27;;;4.80;;
11443;SDS011;5778;47.856;12.154;2022-11-20T13:35:08;2.43;;;2.23;;
11443;SDS011;5778;47.856;12.154;2022-11-20T13:37:36;2.07;;;1.87;;
11443;SDS011;5778;47.856;12.154;2022-11-20T13:40:11;1.60;;;1.50;;
11443;SDS011;5778;47.856;12.154;2022-11-20T13:45:55;1.90;;;1.37;;
11443;SDS011;5778;47.856;12.154;2022-11-20T13:48:26;2.40;;;2.30;;
11443;SDS011;5778;47.856;12.154;2022-11-20T13:54:13;1.37;;;1.27;;
11443;SDS011;5778;47.856;12.154;2022-11-20T13:57:06;3.03;;;2.83;;
11443;SDS011;5778;47.856;12.154;2022-11-20T13:59:47;4.73;;;4.30;;
11443;SDS011;5778;47.856;12.154;2022-11-20T14:02:33;1.80;;;1.70;;
11443;SDS011;5778;47.856;12.154;2022-11-20T14:08:00;1.03;;;0.97;;
11443;SDS011;5778;47.856;12.154;2022-11-20T14:10:30;2.60;;;2.50;;
11443;SDS011;5778;47.856;12.154;2022-11-20T14:16:26;1.80;;;1.70;;
11443;SDS011;5778;47.856;12.154;2022-11-20T14:18:55;1.20;;;1.20;;
11443;SDS011;5778;47.856;12.154;2022-11-20T14:21:26;3.20;;;2.90;;
11443;SDS011;5778;47.856;12.154;2022-11-20T14:24:02;4.77;;;4.37;;
11443;SDS011;5778;47.856;12.154;2022-11-20T14:26:30;2.37;;;1.47;;
11443;SDS011;5778;47.856;12.154;2022-11-20T14:28:57;1.30;;;1.20;;
11443;SDS011;5778;47.856;12.154;2022-11-20T14:31:26;2.10;;;1.60;;
11443;SDS011;5778;47.856;12.154;2022-11-20T14:33:54;2.03;;;1.40;;
11443;SDS011;5778;47.856;12.154;2022-11-20T14:40:21;7.43;;;6.23;;
11443;SDS011;5778;47.856;12.154;2022-11-20T14:43:16;2.70;;;2.30;;
11443;SDS011;5778;47.856;12.154;2022-11-20T14:45:45;2.53;;;2.33;;
11443;SDS011;5778;47.856;12.154;2022-11-20T14:48:20;1.27;;;1.10;;
11443;SDS011;5778;47.856;12.154;2022-11-20T14:50:53;1.90;;;1.77;;
11443;SDS011;5778;47.856;12.154;2022-11-20T14:56:53;2.20;;;2.00;;
11443;SDS011;5778;47.856;12.154;2022-11-20T14:59:24;4.10;;;3.43;;
11443;SDS011;5778;47.856;12.154;2022-11-20T15:08:22;2.20;;;1.70;;
11443;SDS011;5778;47.856;12.154;2022-11-20T15:10:50;1.80;;;1.70;;
11443;SDS011;5778;47.856;12.154;2022-11-20T15:13:22;2.63;;;2.00;;
11443;SDS011;5778;47.856;12.154;2022-11-20T15:15:53;1.93;;;1.70;;
11443;SDS011;5778;47.856;12.154;2022-11-20T15:18:22;4.47;;;3.63;;
11443;SDS011;5778;47.856;12.154;2022-11-20T15:20:52;10.80;;;7.47;;
11443;SDS011;5778;47.856;12.154;2022-11-20T15:23:29;3.60;;;3.10;;
11443;SDS011;5778;47.856;12.154;2022-11-20T15:25:56;4.07;;;3.40;;
11443;SDS011;5778;47.856;12.154;2022-11-20T15:28:30;1.50;;;1.40;;
11443;SDS011;5778;47.856;12.154;2022-11-20T15:30:58;3.50;;;3.07;;
11443;SDS011;5778;47.856;12.154;2022-11-20T15:39:31;5.33;;;4.83;;
11443;SDS011;5778;47.856;12.154;2022-11-20T15:41:58;5.93;;;4.97;;
11443;SDS011;5778;47.856;12.154;2022-11-20T15:44:25;3.87;;;3.43;;
11443;SDS011;5778;47.856;12.154;2022-11-20T15:46:52;3.83;;;3.43;;
11443;SDS011;5778;47.856;12.154;2022-11-20T15:49:19;1.93;;;1.80;;
11443;SDS011;5778;47.856;12.154;2022-11-20T15:54:52;2.93;;;2.73;;
11443;SDS011;5778;47.856;12.154;2022-11-20T15:57:19;7.10;;;6.40;;
11443;SDS011;5778;47.856;12.154;2022-11-20T15:59:46;8.27;;;7.40;;
11443;SDS011;5778;47.856;12.154;2022-11-20T16:02:17;5.60;;;4.80;;